Time;durP1;ratioP1;P1;durP2;ratioP2;P2;SDS_P1;SDS_P2;PMS_P1;PMS_P2;Temp;Humidity;BMP_temperature;BMP_pressure;BME280_temperature;BME280_humidity;BME280_pressure;Samples;Min_cycle;Max_cycle;Signal;HPM_P1;HPM_P2
2023/02/08 00:00:58;;;;;;;1.60;1.38;;;;;;;-0.96;59.14;103275.09;5030439;28;20030;-84
2023/02/08 00:03:24;;;;;;;3.72;2.42;;;;;;;-0.80;59.82;103303.66;4996932;28;20028;-83
2023/02/08 00:05:49;;;;;;;1.35;1.02;;;;;;;-0.73;57.70;103315.84;4997167;28;20026;-84
2023/02/08 00:08:15;;;;;;;2.75;1.23;;;;;;;-0.80;58.28;103288.41;4997200;28;20459;-83
2023/02/08 00:10:40;;;;;;;0.57;0.57;;;;;;;-0.74;56.80;103303.94;5013638;28;20029;-84
2023/02/08 00:13:06;;;;;;;4.88;1.75;;;;;;;-0.67;57.25;103324.59;4997163;28;20025;-83
2023/02/08 00:15:31;;;;;;;3.38;1.58;;;;;;;-0.81;57.77;103307.88;4996744;28;20486;-84
2023/02/08 00:17:57;;;;;;;1.17;1.08;;;;;;;-0.70;58.08;103326.13;4996418;28;20408;-83
2023/02/08 00:20:22;;;;;;;1.83;1.70;;;;;;;-0.74;58.01;103311.56;5013234;28;20095;-83
2023/02/08 00:22:48;;;;;;;1.95;1.83;;;;;;;-0.64;58.54;103334.88;5028696;28;20057;-83
2023/02/08 00:25:13;;;;;;;1.85;1.75;;;;;;;-0.72;58.61;103340.44;4996784;28;20037;-83
2023/02/08 00:27:39;;;;;;;2.10;1.85;;;;;;;-0.83;58.03;103318.81;5013076;28;20025;-83
2023/02/08 00:30:05;;;;;;;2.47;2.08;;;;;;;-0.73;57.86;103326.00;5029516;28;20508;-83
2023/02/08 00:32:30;;;;;;;1.25;0.98;;;;;;;-0.59;58.33;103337.56;5012954;28;20052;-83
2023/02/08 00:34:56;;;;;;;2.35;1.35;;;;;;;-0.62;57.90;103340.88;5029297;28;20025;-83
2023/02/08 00:37:21;;;;;;;1.95;1.27;;;;;;;-0.59;58.09;103347.75;5012910;28;20029;-83
2023/02/08 00:39:46;;;;;;;2.80;1.90;;;;;;;-0.59;58.56;103341.03;5013185;28;20037;-84
2023/02/08 00:42:12;;;;;;;1.02;0.95;;;;;;;-0.50;58.62;103345.56;5013011;28;20030;-83
2023/02/08 00:44:37;;;;;;;2.42;1.90;;;;;;;-0.63;58.20;103318.81;5013066;28;20412;-83
2023/02/08 00:47:03;;;;;;;1.73;1.60;;;;;;;-0.48;57.82;103340.59;5012820;28;20026;-83
2023/02/08 00:49:28;;;;;;;2.20;1.83;;;;;;;-0.56;57.74;103329.22;5030416;28;20104;-83
2023/02/08 00:51:54;;;;;;;1.75;1.33;;;;;;;-0.80;57.80;103288.41;5029460;28;20025;-84
2023/02/08 00:54:19;;;;;;;2.13;1.42;;;;;;;-0.49;58.13;103354.97;5012966;28;20041;-83
2023/02/08 00:56:45;;;;;;;8.48;2.10;;;;;;;-0.50;56.93;103349.78;5013050;28;20495;-84
2023/02/08 00:59:11;;;;;;;1.50;1.40;;;;;;;-0.47;58.09;103358.44;4996717;28;20035;-84
2023/02/08 01:01:37;;;;;;;2.50;1.80;;;;;;;-0.40;57.26;103356.97;5012624;28;20044;-83
2023/02/08 01:04:02;;;;;;;2.28;1.98;;;;;;;-0.57;58.29;103338.53;4996633;28;20029;-84
2023/02/08 01:06:28;;;;;;;3.35;3.05;;;;;;;-0.43;57.37;103341.63;5012689;28;20026;-84
2023/02/08 01:08:53;;;;;;;3.25;2.17;;;;;;;-0.43;56.96;103339.94;4996493;28;20040;-84
2023/02/08 01:11:23;;;;;;;1.55;1.40;;;;;;;-0.55;57.57;103344.53;5012605;28;20029;-83
2023/02/08 01:13:49;;;;;;;2.40;1.60;;;;;;;-0.40;57.95;103362.94;4997144;28;20472;-83
2023/02/08 01:16:16;;;;;;;2.05;1.58;;;;;;;-0.38;57.42;103361.34;5012525;28;20056;-83
2023/02/08 01:18:43;;;;;;;3.30;2.00;;;;;;;-0.50;58.04;103359.97;5012931;28;20619;-83
2023/02/08 01:21:14;;;;;;;2.60;2.17;;;;;;;-0.49;58.39;103361.69;5029161;28;20076;-84
2023/02/08 01:23:39;;;;;;;2.80;2.00;;;;;;;-0.60;58.30;103344.34;5013291;28;20026;-84
2023/02/08 01:26:05;;;;;;;2.63;1.58;;;;;;;-0.59;57.88;103363.91;5029093;28;20545;-83
2023/02/08 01:28:31;;;;;;;2.33;1.77;;;;;;;-0.50;58.78;103362.50;5012769;28;20411;-83
2023/02/08 01:30:56;;;;;;;4.80;2.47;;;;;;;-0.51;58.64;103369.28;5012425;28;20022;-83
2023/02/08 01:33:22;;;;;;;5.63;3.65;;;;;;;-0.65;57.96;103345.84;5013364;28;20037;-83
2023/02/08 01:35:51;;;;;;;1.40;1.30;;;;;;;-0.55;57.85;103362.34;5016466;28;20048;-84
2023/02/08 01:38:17;;;;;;;4.25;1.58;;;;;;;-0.60;57.40;103367.22;5016751;28;20037;-83
2023/02/08 01:40:42;;;;;;;2.53;2.33;;;;;;;-0.60;57.93;103366.34;5016171;28;20078;-83
2023/02/08 01:43:20;;;;;;;1.30;1.13;;;;;;;-0.64;58.03;103370.47;5032577;28;20072;-83
2023/02/08 01:45:45;;;;;;;2.08;1.48;;;;;;;-0.81;58.51;103342.59;5016265;28;20053;-84
2023/02/08 01:48:13;;;;;;;3.47;2.70;;;;;;;-0.94;58.88;103331.06;4999771;28;20488;-83
2023/02/08 01:50:53;;;;;;;2.97;2.67;;;;;;;-0.96;58.89;103333.56;5016361;28;20034;-84
2023/02/08 01:53:18;;;;;;;2.05;1.65;;;;;;;-0.95;59.26;103330.22;5016586;28;20385;-84
2023/02/08 01:55:47;;;;;;;1.67;1.48;;;;;;;-0.96;58.30;103333.56;5016109;28;20484;-83
2023/02/08 01:58:12;;;;;;;3.45;2.22;;;;;;;-0.78;57.84;103365.63;4999755;28;20032;-83
2023/02/08 02:00:38;;;;;;;2.42;1.52;;;;;;;-0.96;58.41;103364.06;5015313;28;20030;-83
2023/02/08 02:03:03;;;;;;;1.65;1.40;;;;;;;-0.91;58.37;103377.81;4999431;28;20085;-83
2023/02/08 02:05:32;;;;;;;7.18;2.17;;;;;;;-1.03;58.70;103367.13;5015831;28;20041;-83
2023/02/08 02:07:58;;;;;;;2.38;1.83;;;;;;;-0.89;59.94;103386.34;5015741;28;20500;-83
2023/02/08 02:10:27;;;;;;;2.03;1.83;;;;;;;-0.83;59.29;103395.94;5015806;28;20032;-84
2023/02/08 02:12:53;;;;;;;1.63;1.52;;;;;;;-0.88;58.83;103393.19;5032508;28;20153;-83
2023/02/08 02:15:19;;;;;;;1.65;1.52;;;;;;;-0.85;58.70;103382.28;5015157;28;20054;-83
2023/02/08 02:17:44;;;;;;;3.42;2.42;;;;;;;-0.77;57.47;103395.31;5015520;28;20037;-83
2023/02/08 02:20:38;;;;;;;3.10;2.83;;;;;;;-0.83;58.34;103397.59;5032194;28;20033;-84
2023/02/08 02:23:40;;;;;;;2.42;2.10;;;;;;;-0.84;58.41;103404.34;5032991;28;20021;-83
2023/02/08 02:26:36;;;;;;;2.88;2.67;;;;;;;-1.07;58.34;103385.59;5031607;28;20026;-84
2023/02/08 02:29:19;;;;;;;4.55;3.22;;;;;;;-0.96;58.70;103409.78;5032776;28;20064;-83
2023/02/08 02:32:02;;;;;;;9.85;3.45;;;;;;;-0.98;59.51;103406.31;5033066;28;20037;-83
2023/02/08 02:35:09;;;;;;;3.70;2.85;;;;;;;-1.11;58.99;103386.25;5033334;28;20029;-84
2023/02/08 02:38:04;;;;;;;3.88;2.60;;;;;;;-1.07;58.70;103395.75;5020999;28;20539;-84
2023/02/08 02:40:56;;;;;;;5.10;2.50;;;;;;;-1.01;58.86;103418.00;5031705;28;20021;-83
2023/02/08 02:43:40;;;;;;;4.45;4.07;;;;;;;-1.12;58.86;103401.44;5029374;28;20038;-83
2023/02/08 02:46:28;;;;;;;5.93;3.65;;;;;;;-0.98;58.69;103415.63;5016812;28;20030;-84
2023/02/08 02:49:04;;;;;;;6.82;4.05;;;;;;;-1.09;59.17;103412.59;5030623;28;20508;-83
2023/02/08 02:51:56;;;;;;;3.92;3.47;;;;;;;-1.23;59.13;103400.97;5031501;28;20029;-84
2023/02/08 02:54:24;;;;;;;4.17;3.77;;;;;;;-1.43;59.53;103378.91;4999608;28;20476;-84
2023/02/08 02:56:59;;;;;;;5.57;3.20;;;;;;;-1.06;59.41;103425.44;5015201;28;20272;-85
2023/02/08 02:59:24;;;;;;;5.47;3.53;;;;;;;-1.24;61.63;103422.09;5014911;28;20053;-85
2023/02/08 03:01:50;;;;;;;3.35;3.05;;;;;;;-1.41;61.64;103398.47;5014855;28;20033;-84
2023/02/08 03:04:31;;;;;;;1.95;1.70;;;;;;;-1.33;61.58;103430.16;5014617;28;20484;-84
2023/02/08 03:07:21;;;;;;;2.50;2.17;;;;;;;-1.26;60.79;103428.78;5033162;28;20116;-84
2023/02/08 03:10:12;;;;;;;3.45;2.47;;;;;;;-1.32;60.82;103433.56;5047639;28;20087;-84
2023/02/08 03:13:04;;;;;;;3.05;2.80;;;;;;;-1.29;60.64;103438.78;5047322;28;20122;-84
2023/02/08 03:15:42;;;;;;;4.45;3.35;;;;;;;-1.36;60.46;103439.34;5030824;28;20053;-84
2023/02/08 03:18:16;;;;;;;2.97;2.75;;;;;;;-1.65;60.76;103405.88;5031932;28;20404;-84
2023/02/08 03:21:07;;;;;;;3.47;2.15;;;;;;;-1.48;60.59;103421.84;5047453;28;20484;-84
2023/02/08 03:23:54;;;;;;;7.10;2.47;;;;;;;-1.36;60.64;103440.19;5030775;28;20084;-85
2023/02/08 03:26:31;;;;;;;5.13;3.10;;;;;;;-1.48;60.75;103422.72;5031422;28;20029;-85
2023/02/08 03:29:04;;;;;;;19.30;2.25;;;;;;;-1.55;61.19;103441.03;5030918;28;20025;-85
2023/02/08 03:31:45;;;;;;;5.88;3.20;;;;;;;-1.59;61.34;103443.34;5030722;28;20036;-85
2023/02/08 03:34:18;;;;;;;3.00;2.50;;;;;;;-1.59;61.11;103439.13;5031843;28;20404;-85
2023/02/08 03:36:48;;;;;;;4.88;3.10;;;;;;;-1.76;61.83;103434.97;5014258;28;20030;-85
2023/02/08 03:39:16;;;;;;;3.38;2.15;;;;;;;-1.62;61.53;103445.75;5014415;28;20064;-85
2023/02/08 03:41:43;;;;;;;4.35;2.95;;;;;;;-1.77;61.43;103423.06;5014034;28;20034;-85
2023/02/08 03:44:23;;;;;;;2.25;2.05;;;;;;;-1.67;61.34;103442.13;5014526;28;20025;-85
2023/02/08 03:46:55;;;;;;;4.63;3.83;;;;;;;-1.79;61.71;103435.69;5015597;28;20424;-85
2023/02/08 03:49:26;;;;;;;5.25;3.10;;;;;;;-1.74;61.30;103448.59;5013929;28;20033;-85
2023/02/08 03:51:52;;;;;;;3.72;2.83;;;;;;;-1.77;60.97;103453.50;4997745;28;20121;-84
2023/02/08 03:54:22;;;;;;;6.15;3.10;;;;;;;-1.73;61.66;103455.41;4997506;28;20030;-84
2023/02/08 03:57:03;;;;;;;2.80;1.63;;;;;;;-1.69;61.46;103464.91;5013926;28;20033;-85
2023/02/08 03:59:31;;;;;;;15.55;3.58;;;;;;;-1.83;62.30;103471.00;5031428;28;20079;-84
2023/02/08 04:01:58;;;;;;;10.95;6.15;;;;;;;-1.89;61.90;103478.31;5030273;28;20174;-85
2023/02/08 04:04:25;;;;;;;5.20;3.03;;;;;;;-1.96;62.21;103471.22;5013626;28;20025;-84
2023/02/08 04:06:51;;;;;;;9.45;2.95;;;;;;;-1.99;62.09;103471.94;5013560;28;20037;-85
2023/02/08 04:09:16;;;;;;;4.82;3.10;;;;;;;-1.99;62.28;103482.06;5013563;28;20107;-86
2023/02/08 04:11:42;;;;;;;2.47;2.28;;;;;;;-2.01;62.76;103486.22;5013258;28;20566;-87
2023/02/08 04:14:07;;;;;;;3.55;3.20;;;;;;;-2.06;62.92;103493.63;5029671;28;20045;-87
2023/02/08 04:16:32;;;;;;;1.80;1.70;;;;;;;-2.08;62.74;103485.03;4997087;28;20072;-87
2023/02/08 04:18:58;;;;;;;3.92;3.22;;;;;;;-1.76;65.29;103493.34;5030176;28;20029;-84
2023/02/08 04:21:23;;;;;;;4.13;2.38;;;;;;;-1.92;61.85;103468.91;4996718;28;20393;-84
2023/02/08 04:23:49;;;;;;;1.98;1.85;;;;;;;-1.72;62.30;103477.44;5029493;28;20025;-84
2023/02/08 04:26:14;;;;;;;3.55;3.22;;;;;;;-1.65;61.83;103489.66;5029168;28;20080;-84
2023/02/08 04:28:40;;;;;;;4.35;3.58;;;;;;;-1.39;62.84;103489.97;5029663;28;20036;-84
2023/02/08 04:31:05;;;;;;;6.88;4.90;;;;;;;-1.33;61.74;103492.78;5013349;28;20029;-85
2023/02/08 04:33:31;;;;;;;4.20;3.28;;;;;;;-1.31;59.92;103499.69;5029630;28;20037;-86
2023/02/08 04:35:56;;;;;;;7.63;4.55;;;;;;;-1.37;59.78;103506.16;5027961;28;20044;-92
2023/02/08 04:38:23;;;;;;;6.82;4.38;;;;;;;-1.53;59.90;103490.22;5030395;28;20055;-85
2023/02/08 04:40:48;;;;;;;11.18;7.10;;;;;;;-1.53;60.01;103505.44;5029289;28;20420;-89
2023/02/08 04:43:13;;;;;;;4.88;4.35;;;;;;;-1.65;60.06;103502.34;5029652;28;20029;-91
2023/02/08 04:45:39;;;;;;;10.70;4.47;;;;;;;-1.86;60.37;103494.56;5029315;28;20025;-88
2023/02/08 04:48:06;;;;;;;6.63;4.38;;;;;;;-1.81;61.27;103512.53;5029492;28;20033;-89
2023/02/08 04:50:32;;;;;;;4.07;3.58;;;;;;;-1.93;61.74;103514.50;5013469;28;20389;-89
2023/02/08 04:52:57;;;;;;;5.22;4.07;;;;;;;-1.97;62.52;103520.19;5029204;28;20082;-89
2023/02/08 04:55:23;;;;;;;8.50;3.50;;;;;;;-2.13;61.95;103518.59;5029562;28;20030;-89
2023/02/08 04:57:48;;;;;;;5.10;4.03;;;;;;;-2.07;61.67;103537.50;5012928;28;20033;-89
2023/02/08 05:00:14;;;;;;;6.63;5.47;;;;;;;-2.18;61.73;103538.66;5029682;28;20033;-89
2023/02/08 05:02:39;;;;;;;5.53;3.90;;;;;;;-2.24;62.65;103545.97;5013146;28;20033;-89
2023/02/08 05:05:05;;;;;;;3.50;3.05;;;;;;;-2.28;62.60;103549.13;5029102;28;20030;-89
2023/02/08 05:07:30;;;;;;;7.93;3.70;;;;;;;-2.24;63.11;103556.13;5012957;28;20100;-91
2023/02/08 05:09:56;;;;;;;2.85;2.28;;;;;;;-2.34;62.98;103551.38;5032939;28;20025;-90
2023/02/08 05:12:21;;;;;;;4.85;3.30;;;;;;;-2.44;63.05;103561.84;5014871;28;20496;-90
2023/02/08 05:14:47;;;;;;;5.97;3.05;;;;;;;-2.40;63.07;103574.72;5017134;28;20052;-89
2023/02/08 05:17:12;;;;;;;2.78;2.13;;;;;;;-2.50;63.31;103577.59;5018053;28;20060;-84
2023/02/08 05:19:38;;;;;;;5.82;4.47;;;;;;;-2.74;63.33;103529.03;5014148;28;20034;-82
2023/02/08 05:22:03;;;;;;;3.75;2.65;;;;;;;-2.38;62.79;103582.41;5012641;28;20068;-83
2023/02/08 05:24:28;;;;;;;3.30;2.72;;;;;;;-2.43;62.97;103594.00;4999416;28;20045;-94
2023/02/08 05:26:54;;;;;;;3.38;2.72;;;;;;;-2.62;64.65;103582.91;5031403;28;20025;-94
2023/02/08 05:29:19;;;;;;;5.28;4.20;;;;;;;-2.55;63.92;103595.91;5020062;28;20416;-84
2023/02/08 05:31:45;;;;;;;4.63;3.65;;;;;;;-2.64;63.62;103591.22;5013484;28;20026;-90
2023/02/08 05:34:11;;;;;;;7.20;4.43;;;;;;;-2.58;63.14;103598.25;5016404;28;20029;-94
2023/02/08 05:36:36;;;;;;;4.75;4.22;;;;;;;-2.51;63.05;103610.47;5026531;28;20116;-94
2023/02/08 05:39:02;;;;;;;5.13;3.28;;;;;;;-2.60;64.05;103614.25;4997818;28;20084;-89
2023/02/08 05:41:28;;;;;;;4.15;3.05;;;;;;;-2.57;64.53;103615.19;5008582;28;20032;-94
2023/02/08 05:43:53;;;;;;;5.25;4.07;;;;;;;-2.64;64.38;103612.38;5020707;28;20026;-94
2023/02/08 05:46:19;;;;;;;7.80;5.82;;;;;;;-2.60;64.28;103626.06;5032463;28;20029;-85
2023/02/08 05:48:44;;;;;;;4.60;4.18;;;;;;;-2.55;63.80;103624.66;5035272;28;20416;-96
2023/02/08 05:51:10;;;;;;;4.85;4.38;;;;;;;-2.43;63.78;103637.97;5016130;28;20029;-94
2023/02/08 05:53:36;;;;;;;5.60;4.93;;;;;;;-2.37;63.46;103634.88;5029536;28;20067;-86
2023/02/08 05:56:01;;;;;;;5.18;4.10;;;;;;;-2.47;63.84;103637.72;5028937;28;20044;-93
2023/02/08 05:58:27;;;;;;;6.72;5.05;;;;;;;-2.55;64.24;103634.78;5015239;28;21536;-92
2023/02/08 06:00:53;;;;;;;5.57;4.97;;;;;;;-2.43;64.25;103644.69;5035732;28;20036;-91
2023/02/08 06:03:18;;;;;;;8.07;4.80;;;;;;;-2.33;64.08;103652.00;5015459;28;20034;-90
2023/02/08 06:05:44;;;;;;;9.90;6.28;;;;;;;-2.33;65.21;103657.06;5010476;28;20507;-95
2023/02/08 06:08:09;;;;;;;6.72;5.03;;;;;;;-1.99;66.20;103663.88;5015966;28;20038;-90
2023/02/08 06:10:35;;;;;;;6.70;4.82;;;;;;;-1.99;63.85;103658.81;5029675;28;20088;-92
2023/02/08 06:13:01;;;;;;;7.82;4.70;;;;;;;-2.29;63.66;103633.59;4996679;28;20596;-91
2023/02/08 06:15:26;;;;;;;12.18;5.10;;;;;;;-2.24;63.89;103652.47;4999218;28;20084;-88
2023/02/08 06:17:52;;;;;;;5.95;4.63;;;;;;;-2.36;63.47;103646.75;5015937;28;20504;-91
2023/02/08 06:20:18;;;;;;;5.97;3.63;;;;;;;-2.18;63.72;103684.88;5011913;28;20053;-91
2023/02/08 06:22:43;;;;;;;3.63;2.83;;;;;;;-2.05;63.79;103689.81;5015066;28;20037;-92
2023/02/08 06:25:09;;;;;;;7.20;4.55;;;;;;;-2.12;64.21;103691.16;5017929;28;20420;-93
2023/02/08 06:27:34;;;;;;;8.07;5.90;;;;;;;-2.13;64.23;103698.69;5016470;28;20033;-94
2023/02/08 06:30:00;;;;;;;10.10;8.02;;;;;;;-2.24;64.33;103698.13;5013487;28;20127;-93
2023/02/08 06:32:25;;;;;;;9.57;5.50;;;;;;;-2.16;64.24;103701.94;5016536;28;20029;-89
2023/02/08 06:34:51;;;;;;;9.65;8.43;;;;;;;-2.22;64.44;103700.75;5013752;28;20029;-91
2023/02/08 06:37:17;;;;;;;11.38;9.13;;;;;;;-2.13;63.66;103711.38;5012667;28;20608;-89
2023/02/08 06:39:42;;;;;;;9.05;6.53;;;;;;;-2.09;63.84;103709.06;5015240;28;20051;-92
2023/02/08 06:42:08;;;;;;;15.85;7.20;;;;;;;-2.11;62.79;103715.72;4995355;28;20041;-91
2023/02/08 06:44:33;;;;;;;9.88;6.65;;;;;;;-2.22;63.35;103715.97;5011644;28;20022;-88
2023/02/08 06:46:59;;;;;;;18.23;7.60;;;;;;;-2.37;63.27;103704.19;5014073;28;20049;-81
2023/02/08 06:49:24;;;;;;;9.75;5.80;;;;;;;-2.25;63.46;103726.81;5021356;28;20440;-94
2023/02/08 06:51:50;;;;;;;5.53;3.60;;;;;;;-2.35;62.71;103720.38;4998993;28;20029;-90
2023/02/08 06:54:15;;;;;;;4.80;4.18;;;;;;;-2.34;63.07;103718.72;5011208;28;20038;-91
2023/02/08 06:56:41;;;;;;;5.97;4.25;;;;;;;-2.35;63.89;103724.59;5010932;28;20025;-93
2023/02/08 06:59:07;;;;;;;3.65;2.67;;;;;;;-2.26;63.95;103721.66;5019378;28;20021;-91
2023/02/08 07:01:32;;;;;;;4.13;2.50;;;;;;;-2.32;64.77;103724.75;5055504;23;20043;-95
2023/02/08 07:03:57;;;;;;;2.78;2.13;;;;;;;-2.36;64.28;103733.88;5058951;28;20491;-84
2023/02/08 07:06:23;;;;;;;4.35;2.45;;;;;;;-2.31;64.40;103740.03;5033776;28;20488;-90
2023/02/08 07:08:48;;;;;;;4.95;4.55;;;;;;;-2.43;64.16;103715.69;5030792;28;20041;-82
2023/02/08 07:11:16;;;;;;;1.88;1.77;;;;;;;-2.27;63.68;103740.19;5023134;28;20040;-83
2023/02/08 07:13:41;;;;;;;5.43;3.72;;;;;;;-2.28;64.03;103740.97;5053821;28;20029;-94
2023/02/08 07:16:08;;;;;;;6.43;3.70;;;;;;;-2.29;63.78;103752.78;5067291;28;20025;-90
2023/02/08 07:18:33;;;;;;;9.50;5.10;;;;;;;-2.34;64.19;103742.41;5037781;28;20029;-90
2023/02/08 07:20:59;;;;;;;4.72;3.20;;;;;;;-2.38;64.38;103754.84;5033331;28;20038;-92
2023/02/08 07:23:24;;;;;;;2.22;2.10;;;;;;;-2.31;64.90;103760.31;5033696;28;20117;-85
2023/02/08 07:26:00;;;;;;;5.07;2.95;;;;;;;-2.37;65.36;103756.56;5035197;28;20446;-84
2023/02/08 07:28:26;;;;;;;3.40;3.10;;;;;;;-2.23;64.67;103758.22;5049721;28;20029;-89
2023/02/08 07:30:51;;;;;;;3.08;2.63;;;;;;;-2.35;65.01;103750.81;5033066;28;20029;-89
2023/02/08 07:33:17;;;;;;;8.88;5.60;;;;;;;-2.26;65.70;103765.66;5033295;28;20074;-91
2023/02/08 07:35:42;;;;;;;7.00;4.90;;;;;;;-2.14;64.80;103760.38;5021713;28;20033;-93
2023/02/08 07:38:08;;;;;;;3.28;2.97;;;;;;;-2.10;65.48;103773.28;5034003;28;20025;-90
2023/02/08 07:40:34;;;;;;;6.75;4.07;;;;;;;-2.08;65.12;103774.22;5050415;28;20120;-94
2023/02/08 07:42:59;;;;;;;4.90;3.95;;;;;;;-2.02;65.44;103786.38;5040267;28;20039;-92
2023/02/08 07:45:25;;;;;;;3.38;2.85;;;;;;;-1.97;66.15;103796.75;5035172;28;20427;-91
2023/02/08 07:47:50;;;;;;;2.83;2.53;;;;;;;-2.04;66.45;103778.69;5051048;28;20025;-83
2023/02/08 07:50:16;;;;;;;7.38;2.67;;;;;;;-1.88;66.34;103784.56;5016106;28;20098;-91
2023/02/08 07:52:44;;;;;;;2.25;1.98;;;;;;;-1.90;66.41;103794.63;5033280;28;20108;-86
2023/02/08 07:55:15;;;;;;;2.67;2.47;;;;;;;-1.88;66.94;103779.47;5035103;28;20024;-91
2023/02/08 07:57:44;;;;;;;8.35;5.65;;;;;;;-1.70;66.33;103785.53;5066705;28;20029;-89
2023/02/08 08:00:10;;;;;;;2.58;2.38;;;;;;;-1.71;65.87;103793.94;5034672;28;20492;-93
2023/02/08 08:02:35;;;;;;;5.45;4.70;;;;;;;-1.77;66.76;103794.50;5049902;28;20067;-91
2023/02/08 08:05:01;;;;;;;4.03;3.42;;;;;;;-1.72;66.50;103794.72;5036829;28;21095;-92
2023/02/08 08:07:26;;;;;;;6.80;3.15;;;;;;;-1.66;66.44;103792.53;5058098;28;20120;-94
2023/02/08 08:09:52;;;;;;;3.72;3.05;;;;;;;-1.66;66.45;103807.75;5033189;28;20094;-91
2023/02/08 08:12:17;;;;;;;4.32;3.72;;;;;;;-1.58;66.99;103806.47;5050183;28;20538;-94
2023/02/08 08:14:43;;;;;;;4.20;3.78;;;;;;;-1.61;65.66;103792.75;5037812;28;20033;-82
2023/02/08 08:17:08;;;;;;;4.18;3.80;;;;;;;-1.43;65.51;103813.13;5065103;28;20036;-87
2023/02/08 08:19:34;;;;;;;10.38;7.25;;;;;;;-1.37;65.67;103816.00;5033337;28;20407;-82
2023/02/08 08:21:59;;;;;;;9.40;4.35;;;;;;;-1.37;65.77;103813.47;5048832;28;20456;-88
2023/02/08 08:24:25;;;;;;;7.43;4.00;;;;;;;-1.67;65.21;103760.31;5041983;28;20037;-87
2023/02/08 08:26:50;;;;;;;6.65;4.85;;;;;;;-1.26;65.11;103825.91;5048257;28;20028;-91
2023/02/08 08:29:16;;;;;;;3.45;2.88;;;;;;;-1.37;65.14;103790.59;5049375;28;20040;-90
2023/02/08 08:31:42;;;;;;;7.93;4.95;;;;;;;-1.08;64.22;103825.06;5048668;28;20033;-88
2023/02/08 08:34:08;;;;;;;10.52;6.50;;;;;;;-1.13;64.52;103827.41;5032372;28;20029;-91
2023/02/08 08:36:33;;;;;;;7.00;4.70;;;;;;;-1.07;64.02;103824.31;5031930;28;20028;-88
2023/02/08 08:38:58;;;;;;;6.15;3.90;;;;;;;-0.95;63.44;103843.56;5031603;28;20101;-93
2023/02/08 08:44:08;;;;;;;8.13;3.78;;;;;;;-1.02;63.26;103846.59;5048776;28;20051;-91
2023/02/08 08:46:33;;;;;;;7.97;5.57;;;;;;;-0.99;63.13;103849.28;5031651;28;20033;-88
2023/02/08 08:48:59;;;;;;;5.13;4.07;;;;;;;-0.99;62.83;103856.91;5033764;28;20431;-92
2023/02/08 08:51:24;;;;;;;5.43;3.65;;;;;;;-1.05;63.11;103860.81;5051051;28;20021;-82
2023/02/08 08:53:50;;;;;;;5.53;3.67;;;;;;;-1.06;64.36;103856.53;5048978;28;20025;-89
2023/02/08 08:56:15;;;;;;;19.45;7.20;;;;;;;-0.99;64.01;103859.44;5033458;28;20104;-87
2023/02/08 08:58:42;;;;;;;4.95;4.50;;;;;;;-0.77;63.99;103863.06;5049875;28;20475;-91
2023/02/08 09:01:07;;;;;;;5.97;4.90;;;;;;;-1.12;63.57;103829.13;5032662;28;20356;-86
2023/02/08 09:03:33;;;;;;;8.93;5.45;;;;;;;-1.00;63.55;103860.22;5048014;28;20021;-84
2023/02/08 09:05:58;;;;;;;3.40;2.88;;;;;;;-0.79;65.55;103872.25;5024236;28;20041;-88
2023/02/08 09:08:24;;;;;;;7.97;5.45;;;;;;;-0.75;62.77;103867.44;5048340;28;20090;-91
2023/02/08 09:10:49;;;;;;;7.45;3.88;;;;;;;-0.90;63.41;103872.59;5047290;28;20037;-91
2023/02/08 09:13:18;;;;;;;6.57;4.85;;;;;;;-0.94;63.70;103877.47;5014988;28;20450;-87
2023/02/08 09:15:43;;;;;;;4.72;4.25;;;;;;;-0.99;63.23;103856.91;5047472;28;20033;-81
2023/02/08 09:18:09;;;;;;;7.28;4.60;;;;;;;-1.19;64.09;103842.31;5031622;28;20518;-81
2023/02/08 09:20:37;;;;;;;12.75;4.97;;;;;;;-0.90;64.19;103886.97;5043486;28;20040;-88
2023/02/08 09:23:02;;;;;;;5.47;4.68;;;;;;;-0.91;63.60;103893.75;5031968;28;20036;-87
2023/02/08 09:25:28;;;;;;;8.18;6.10;;;;;;;-0.96;64.10;103877.41;5030253;28;20292;-85
2023/02/08 09:27:53;;;;;;;8.00;5.25;;;;;;;-1.16;63.57;103837.41;5030546;28;20032;-83
2023/02/08 09:30:18;;;;;;;5.85;4.15;;;;;;;-0.88;63.84;103887.97;5064393;28;20434;-80
2023/02/08 09:32:44;;;;;;;5.75;3.55;;;;;;;-1.10;63.64;103878.34;5033819;28;20033;-82
2023/02/08 09:35:12;;;;;;;6.85;6.18;;;;;;;-1.02;63.98;103876.22;5031167;28;20033;-88
2023/02/08 09:37:37;;;;;;;6.85;4.15;;;;;;;-1.05;63.73;103871.84;5014761;28;20029;-88
2023/02/08 09:40:03;;;;;;;2.90;2.45;;;;;;;-0.90;63.44;103894.59;5027576;28;20504;-82
2023/02/08 09:42:40;;;;;;;6.10;3.63;;;;;;;-0.80;64.29;103903.56;5058960;28;20028;-84
2023/02/08 09:45:41;;;;;;;6.07;3.97;;;;;;;-0.70;63.59;103908.31;5030495;28;20033;-83
2023/02/08 09:48:14;;;;;;;5.07;4.45;;;;;;;-0.53;63.43;103904.94;5050151;28;20025;-87
2023/02/08 09:50:45;;;;;;;4.32;3.35;;;;;;;-0.42;63.02;103893.63;5054285;28;20515;-80
2023/02/08 09:53:19;;;;;;;6.28;2.92;;;;;;;-0.22;63.00;103906.44;5049852;28;20480;-80
2023/02/08 09:56:03;;;;;;;3.28;2.63;;;;;;;-0.06;62.70;103896.19;5051849;28;20056;-84
2023/02/08 09:58:38;;;;;;;3.63;3.13;;;;;;;0.03;62.81;103883.91;5029342;28;20082;-86
2023/02/08 10:01:06;;;;;;;6.07;2.92;;;;;;;0.38;62.02;103900.78;5032467;28;20044;-87
2023/02/08 10:03:40;;;;;;;2.50;2.05;;;;;;;0.36;60.98;103889.66;5034168;28;20068;-86
2023/02/08 10:06:07;;;;;;;2.88;2.63;;;;;;;0.19;61.60;103881.22;5048508;28;20055;-90
2023/02/08 10:08:32;;;;;;;5.78;3.90;;;;;;;0.15;61.84;103907.38;5033633;28;20488;-82
2023/02/08 10:11:06;;;;;;;8.27;4.03;;;;;;;0.11;61.68;103900.41;5032409;28;20170;-93
2023/02/08 10:13:54;;;;;;;4.20;3.03;;;;;;;0.05;61.84;103877.19;5033774;28;20040;-80
2023/02/08 10:16:31;;;;;;;4.95;3.13;;;;;;;0.64;65.02;103911.28;5036078;28;20025;-85
2023/02/08 10:19:35;;;;;;;3.05;2.70;;;;;;;0.62;60.67;103900.16;5051698;28;20033;-88
2023/02/08 10:22:08;;;;;;;;;;;;;;;0.67;60.38;103896.09;5030194;28;20025;-88
2023/02/08 10:24:48;;;;;;;2.22;2.03;;;;;;;0.56;61.21;103895.63;5048215;28;19955;-86
2023/02/08 10:27:20;;;;;;;3.08;2.33;;;;;;;0.30;60.78;103852.88;5056221;28;20032;-90
2023/02/08 10:30:20;;;;;;;3.90;2.40;;;;;;;0.52;62.12;103902.28;5051831;28;20051;-84
2023/02/08 10:32:57;;;;;;;4.93;4.18;;;;;;;0.59;61.23;103895.78;5052875;28;20033;-94
2023/02/08 10:35:24;;;;;;;2.55;1.85;;;;;;;0.78;60.98;103903.41;5033193;28;20063;-89
2023/02/08 10:37:49;;;;;;;3.72;3.38;;;;;;;0.84;60.22;103898.59;5045584;28;20416;-88
2023/02/08 10:40:25;;;;;;;3.97;3.10;;;;;;;0.92;60.30;103898.94;5034789;28;20033;-91
2023/02/08 10:43:35;;;;;;;4.45;3.05;;;;;;;1.04;60.13;103912.19;5033981;28;20017;-90
2023/02/08 10:46:27;;;;;;;4.63;3.22;;;;;;;1.00;59.82;103906.91;5041200;28;20044;-87
2023/02/08 10:49:04;;;;;;;4.85;3.80;;;;;;;1.01;60.05;103901.00;5050334;28;20029;-83
2023/02/08 10:51:29;;;;;;;4.22;3.65;;;;;;;1.16;59.92;103901.63;5052487;28;20480;-85
2023/02/08 10:53:55;;;;;;;10.43;4.10;;;;;;;1.21;60.15;103886.56;5016956;28;20037;-85
2023/02/08 10:56:30;;;;;;;5.63;3.70;;;;;;;1.36;61.14;103908.44;5050315;28;20075;-86
2023/02/08 10:58:56;;;;;;;3.90;3.45;;;;;;;1.41;59.58;103909.53;5067706;28;20029;-86
2023/02/08 11:01:22;;;;;;;2.40;2.25;;;;;;;1.34;59.93;103899.88;5067163;28;20045;-84
2023/02/08 11:04:20;;;;;;;4.20;2.85;;;;;;;1.51;60.37;103909.91;5033727;28;20033;-87
2023/02/08 11:06:46;;;;;;;11.75;5.80;;;;;;;1.62;59.23;103890.78;5028808;28;20070;-91
2023/02/08 11:09:30;;;;;;;4.93;3.83;;;;;;;1.87;59.67;103908.84;5033220;28;20052;-89
2023/02/08 11:11:57;;;;;;;5.03;3.65;;;;;;;1.85;58.65;103878.91;5050068;28;20463;-91
2023/02/08 11:14:36;;;;;;;3.40;2.97;;;;;;;1.90;58.69;103905.53;5062921;28;20037;-83
2023/02/08 11:17:02;;;;;;;2.45;2.15;;;;;;;1.78;57.63;103898.25;5047068;28;20061;-87
2023/02/08 11:19:41;;;;;;;3.70;2.33;;;;;;;1.67;57.69;103904.59;5051304;28;20056;-87
2023/02/08 11:22:14;;;;;;;4.00;2.60;;;;;;;1.71;57.75;103886.91;5034440;28;20025;-90
2023/02/08 11:24:40;;;;;;;1.80;1.55;;;;;;;1.75;57.26;103895.56;5033812;28;20057;-83
2023/02/08 11:27:27;;;;;;;2.20;1.85;;;;;;;1.96;56.56;103909.16;5057459;28;20053;-83
2023/02/08 11:30:25;;;;;;;1.30;1.08;;;;;;;2.17;53.36;103908.28;5053126;28;20025;-95
2023/02/08 11:33:27;;;;;;;1.45;1.35;;;;;;;2.30;51.36;103900.25;5037902;28;20086;-89
2023/02/08 11:35:54;;;;;;;6.78;2.13;;;;;;;2.06;49.67;103878.88;4973129;28;20069;-84
2023/02/08 11:38:26;;;;;;;2.08;1.58;;;;;;;2.22;49.05;103899.09;5035410;28;20120;-80
2023/02/08 11:40:52;;;;;;;3.35;2.17;;;;;;;2.12;49.95;103904.66;5048977;28;20029;-81